Pagrindinis puslapis
METAR-TAF:

METAR-TAF

Oro uostai :

Elis Springsas, Australija

platuma: 23-48S, ilguma: 133-53E, Aukštis: 545 m

Dabartinis oras

Ataskaita buvo paskelbta 37 minutes, ne 19:30 UTC
Ramus vėjas
Temperatūra 19°C
Drėgmė 24%
Slėgis 1014 hPa
Matomumas 10 km arba daugiau

METAR: YBAS 201930Z AUTO 00000KT 9999 // NCD 19/M02 Q1014 RF00.0/000.0

Laikas: 05:37 (20:07 UTC)

Prognozė

Ataskaita buvo paskelbta 3 valandos ir 3 minutes, ne 17:04 UTC
Prognozė galioja nuo 20 metu 18 UTC su 21 metu 18 UTC
Vėjas 12 kt iš Pietryčių
Matomumas 10 km arba daugiau
nėra debesų žemiau 1500 m ir nėra kamuolinių lietaus debesų

TAF: YBAS 201704Z 2018/2118 13012KT CAVOK

Orai ataskaitas ir orų prognozės (METAR, TAF).

turimą stotys yra geltonos ir raudonos taškus žemėlapyje.

Perkelti pele per norėdami pamatyti stoties vardą.

Tada spustelėkite, norėdami matyti oro stebėjimo ir prognozės.

Norėdami pakeisti žemėlapį: spustelėkite ant žalios mygtukų su juodo kryžiaus žemyn,; žalią mygtuką su brūkšneliu, jei norite nutolinti; arba žalių rodyklių gretimoms žemėlapius.


METAR-TAF: